sensor_id;sensor_type;location;lat;lon;timestamp;P1;durP1;ratioP1;P2;durP2;ratioP2
1975;SDS011;988;48.016;7.800;2022-12-18T00:01:50;44.97;;;26.53;;
1975;SDS011;988;48.016;7.800;2022-12-18T00:04:22;50.30;;;26.30;;
1975;SDS011;988;48.016;7.800;2022-12-18T00:06:49;39.67;;;25.50;;
1975;SDS011;988;48.016;7.800;2022-12-18T00:09:15;44.58;;;27.20;;
1975;SDS011;988;48.016;7.800;2022-12-18T00:11:44;38.13;;;26.75;;
1975;SDS011;988;48.016;7.800;2022-12-18T00:14:13;40.53;;;26.13;;
1975;SDS011;988;48.016;7.800;2022-12-18T00:16:39;41.63;;;27.92;;
1975;SDS011;988;48.016;7.800;2022-12-18T00:19:05;32.67;;;25.27;;
1975;SDS011;988;48.016;7.800;2022-12-18T00:21:32;40.53;;;27.80;;
1975;SDS011;988;48.016;7.800;2022-12-18T00:23:59;36.60;;;26.33;;
1975;SDS011;988;48.016;7.800;2022-12-18T00:26:26;41.50;;;27.33;;
1975;SDS011;988;48.016;7.800;2022-12-18T00:29:08;37.10;;;25.70;;
1975;SDS011;988;48.016;7.800;2022-12-18T00:31:38;48.72;;;27.42;;
1975;SDS011;988;48.016;7.800;2022-12-18T00:34:05;40.42;;;27.30;;
1975;SDS011;988;48.016;7.800;2022-12-18T00:36:32;39.33;;;26.90;;
1975;SDS011;988;48.016;7.800;2022-12-18T00:38:59;37.42;;;27.40;;
1975;SDS011;988;48.016;7.800;2022-12-18T00:41:26;42.00;;;27.30;;
1975;SDS011;988;48.016;7.800;2022-12-18T00:44:11;41.65;;;28.48;;
1975;SDS011;988;48.016;7.800;2022-12-18T00:46:38;43.88;;;27.42;;
1975;SDS011;988;48.016;7.800;2022-12-18T00:49:04;32.00;;;25.52;;
1975;SDS011;988;48.016;7.800;2022-12-18T00:51:30;37.10;;;25.50;;
1975;SDS011;988;48.016;7.800;2022-12-18T00:53:56;45.30;;;26.50;;
1975;SDS011;988;48.016;7.800;2022-12-18T00:56:22;42.60;;;25.90;;
1975;SDS011;988;48.016;7.800;2022-12-18T00:58:48;45.95;;;26.13;;
1975;SDS011;988;48.016;7.800;2022-12-18T01:01:14;47.90;;;27.73;;
1975;SDS011;988;48.016;7.800;2022-12-18T01:03:39;39.13;;;28.03;;
1975;SDS011;988;48.016;7.800;2022-12-18T01:06:09;35.20;;;25.07;;
1975;SDS011;988;48.016;7.800;2022-12-18T01:08:36;41.42;;;26.40;;
1975;SDS011;988;48.016;7.800;2022-12-18T01:11:07;37.78;;;25.73;;
1975;SDS011;988;48.016;7.800;2022-12-18T01:13:39;43.28;;;26.27;;
1975;SDS011;988;48.016;7.800;2022-12-18T01:16:05;39.20;;;27.20;;
1975;SDS011;988;48.016;7.800;2022-12-18T01:18:31;40.30;;;25.20;;
1975;SDS011;988;48.016;7.800;2022-12-18T01:20:57;37.10;;;26.37;;
1975;SDS011;988;48.016;7.800;2022-12-18T01:23:22;36.13;;;25.37;;
1975;SDS011;988;48.016;7.800;2022-12-18T01:25:48;38.80;;;27.70;;
1975;SDS011;988;48.016;7.800;2022-12-18T01:28:14;38.87;;;25.93;;
1975;SDS011;988;48.016;7.800;2022-12-18T01:30:39;38.47;;;26.60;;
1975;SDS011;988;48.016;7.800;2022-12-18T01:33:05;38.80;;;27.83;;
1975;SDS011;988;48.016;7.800;2022-12-18T01:35:31;44.33;;;25.90;;
1975;SDS011;988;48.016;7.800;2022-12-18T01:37:56;43.00;;;26.10;;
1975;SDS011;988;48.016;7.800;2022-12-18T01:40:22;40.20;;;26.60;;
1975;SDS011;988;48.016;7.800;2022-12-18T01:42:52;42.08;;;24.63;;
1975;SDS011;988;48.016;7.800;2022-12-18T01:52:44;36.85;;;24.80;;
1975;SDS011;988;48.016;7.800;2022-12-18T01:55:14;43.05;;;25.40;;
1975;SDS011;988;48.016;7.800;2022-12-18T01:57:43;39.55;;;25.33;;
1975;SDS011;988;48.016;7.800;2022-12-18T02:00:17;40.20;;;27.07;;
1975;SDS011;988;48.016;7.800;2022-12-18T02:02:44;40.55;;;25.13;;
1975;SDS011;988;48.016;7.800;2022-12-18T02:05:11;37.60;;;26.13;;
1975;SDS011;988;48.016;7.800;2022-12-18T02:10:32;33.67;;;26.48;;
1975;SDS011;988;48.016;7.800;2022-12-18T02:18:12;36.40;;;26.48;;
1975;SDS011;988;48.016;7.800;2022-12-18T02:20:54;43.67;;;28.45;;
1975;SDS011;988;48.016;7.800;2022-12-18T02:23:36;34.30;;;26.48;;
1975;SDS011;988;48.016;7.800;2022-12-18T02:26:33;30.40;;;23.73;;
1975;SDS011;988;48.016;7.800;2022-12-18T02:29:29;33.85;;;25.15;;
1975;SDS011;988;48.016;7.800;2022-12-18T02:31:56;36.20;;;26.85;;
1975;SDS011;988;48.016;7.800;2022-12-18T02:34:25;31.38;;;24.70;;
1975;SDS011;988;48.016;7.800;2022-12-18T02:36:54;41.17;;;27.42;;
1975;SDS011;988;48.016;7.800;2022-12-18T02:39:22;33.13;;;25.70;;
1975;SDS011;988;48.016;7.800;2022-12-18T02:41:51;41.47;;;26.73;;
1975;SDS011;988;48.016;7.800;2022-12-18T02:44:17;34.67;;;25.30;;
1975;SDS011;988;48.016;7.800;2022-12-18T02:46:48;36.30;;;24.60;;
1975;SDS011;988;48.016;7.800;2022-12-18T02:51:59;33.47;;;25.42;;
1975;SDS011;988;48.016;7.800;2022-12-18T02:54:49;33.58;;;25.75;;
1975;SDS011;988;48.016;7.800;2022-12-18T02:57:35;34.50;;;27.35;;
1975;SDS011;988;48.016;7.800;2022-12-18T03:02:47;37.83;;;25.80;;
1975;SDS011;988;48.016;7.800;2022-12-18T03:08:10;39.10;;;27.10;;
1975;SDS011;988;48.016;7.800;2022-12-18T03:10:42;36.17;;;25.60;;
1975;SDS011;988;48.016;7.800;2022-12-18T03:13:13;37.88;;;25.85;;
1975;SDS011;988;48.016;7.800;2022-12-18T03:15:45;35.45;;;24.50;;
1975;SDS011;988;48.016;7.800;2022-12-18T03:18:18;47.40;;;28.40;;
1975;SDS011;988;48.016;7.800;2022-12-18T03:21:06;33.80;;;24.73;;
1975;SDS011;988;48.016;7.800;2022-12-18T03:23:48;32.13;;;25.02;;
1975;SDS011;988;48.016;7.800;2022-12-18T03:26:17;38.90;;;25.45;;
1975;SDS011;988;48.016;7.800;2022-12-18T03:28:48;40.60;;;26.35;;
1975;SDS011;988;48.016;7.800;2022-12-18T03:31:18;33.45;;;25.10;;
1975;SDS011;988;48.016;7.800;2022-12-18T03:33:51;36.60;;;24.88;;
1975;SDS011;988;48.016;7.800;2022-12-18T03:36:21;44.40;;;25.85;;
1975;SDS011;988;48.016;7.800;2022-12-18T03:38:47;32.70;;;27.63;;
1975;SDS011;988;48.016;7.800;2022-12-18T03:41:21;37.43;;;26.60;;
1975;SDS011;988;48.016;7.800;2022-12-18T03:47:05;33.10;;;24.88;;
1975;SDS011;988;48.016;7.800;2022-12-18T03:49:46;33.22;;;23.10;;
1975;SDS011;988;48.016;7.800;2022-12-18T03:52:56;32.60;;;23.55;;
1975;SDS011;988;48.016;7.800;2022-12-18T03:55:05;40.25;;;26.98;;
1975;SDS011;988;48.016;7.800;2022-12-18T03:57:33;33.92;;;25.05;;
1975;SDS011;988;48.016;7.800;2022-12-18T04:00:00;37.33;;;24.15;;
1975;SDS011;988;48.016;7.800;2022-12-18T04:02:31;33.45;;;25.40;;
1975;SDS011;988;48.016;7.800;2022-12-18T04:05:00;34.17;;;25.83;;
1975;SDS011;988;48.016;7.800;2022-12-18T04:07:29;36.70;;;25.73;;
1975;SDS011;988;48.016;7.800;2022-12-18T04:09:56;32.13;;;26.87;;
1975;SDS011;988;48.016;7.800;2022-12-18T04:12:24;34.85;;;27.40;;
1975;SDS011;988;48.016;7.800;2022-12-18T04:14:51;30.58;;;26.30;;
1975;SDS011;988;48.016;7.800;2022-12-18T04:17:17;36.75;;;26.90;;
1975;SDS011;988;48.016;7.800;2022-12-18T04:19:42;28.63;;;24.53;;
1975;SDS011;988;48.016;7.800;2022-12-18T04:22:09;40.60;;;26.87;;
1975;SDS011;988;48.016;7.800;2022-12-18T04:24:35;39.30;;;26.98;;
1975;SDS011;988;48.016;7.800;2022-12-18T04:27:01;37.37;;;27.20;;
1975;SDS011;988;48.016;7.800;2022-12-18T04:29:28;37.37;;;26.03;;
1975;SDS011;988;48.016;7.800;2022-12-18T04:31:54;34.03;;;26.25;;
1975;SDS011;988;48.016;7.800;2022-12-18T04:34:20;39.50;;;26.40;;
1975;SDS011;988;48.016;7.800;2022-12-18T04:36:46;41.00;;;27.50;;
1975;SDS011;988;48.016;7.800;2022-12-18T04:39:11;37.90;;;26.53;;
1975;SDS011;988;48.016;7.800;2022-12-18T04:41:37;39.43;;;26.73;;
1975;SDS011;988;48.016;7.800;2022-12-18T04:44:03;35.63;;;26.90;;
1975;SDS011;988;48.016;7.800;2022-12-18T04:46:29;40.20;;;29.20;;
1975;SDS011;988;48.016;7.800;2022-12-18T04:48:55;36.67;;;26.53;;
1975;SDS011;988;48.016;7.800;2022-12-18T04:51:20;38.33;;;25.60;;
1975;SDS011;988;48.016;7.800;2022-12-18T04:53:46;42.80;;;27.40;;
1975;SDS011;988;48.016;7.800;2022-12-18T04:56:13;34.87;;;26.43;;
1975;SDS011;988;48.016;7.800;2022-12-18T04:58:41;35.17;;;26.38;;
1975;SDS011;988;48.016;7.800;2022-12-18T05:01:08;36.45;;;25.30;;
1975;SDS011;988;48.016;7.800;2022-12-18T05:03:34;38.30;;;27.10;;
1975;SDS011;988;48.016;7.800;2022-12-18T05:06:00;32.80;;;27.17;;
1975;SDS011;988;48.016;7.800;2022-12-18T05:08:26;35.13;;;27.80;;
1975;SDS011;988;48.016;7.800;2022-12-18T05:11:01;36.73;;;28.10;;
1975;SDS011;988;48.016;7.800;2022-12-18T05:13:32;32.05;;;26.35;;
1975;SDS011;988;48.016;7.800;2022-12-18T05:15:58;39.28;;;27.35;;
1975;SDS011;988;48.016;7.800;2022-12-18T05:18:24;42.03;;;27.07;;
1975;SDS011;988;48.016;7.800;2022-12-18T05:20:51;27.90;;;24.92;;
1975;SDS011;988;48.016;7.800;2022-12-18T05:23:18;39.03;;;25.63;;
1975;SDS011;988;48.016;7.800;2022-12-18T05:25:51;33.45;;;25.58;;
1975;SDS011;988;48.016;7.800;2022-12-18T05:28:17;36.60;;;26.38;;
1975;SDS011;988;48.016;7.800;2022-12-18T05:30:42;34.97;;;25.80;;
1975;SDS011;988;48.016;7.800;2022-12-18T05:33:12;28.25;;;24.23;;
1975;SDS011;988;48.016;7.800;2022-12-18T05:35:37;30.60;;;25.27;;
1975;SDS011;988;48.016;7.800;2022-12-18T05:38:03;37.03;;;26.87;;
1975;SDS011;988;48.016;7.800;2022-12-18T05:40:28;37.80;;;24.80;;
1975;SDS011;988;48.016;7.800;2022-12-18T05:42:54;35.73;;;25.27;;
1975;SDS011;988;48.016;7.800;2022-12-18T05:45:19;39.07;;;25.90;;
1975;SDS011;988;48.016;7.800;2022-12-18T05:47:45;33.73;;;25.00;;
1975;SDS011;988;48.016;7.800;2022-12-18T05:50:10;35.23;;;25.03;;
1975;SDS011;988;48.016;7.800;2022-12-18T05:52:36;38.90;;;26.23;;
1975;SDS011;988;48.016;7.800;2022-12-18T05:55:02;35.70;;;26.80;;
1975;SDS011;988;48.016;7.800;2022-12-18T05:57:27;37.00;;;25.53;;
1975;SDS011;988;48.016;7.800;2022-12-18T05:59:53;47.80;;;26.60;;
1975;SDS011;988;48.016;7.800;2022-12-18T06:02:19;37.30;;;25.77;;
1975;SDS011;988;48.016;7.800;2022-12-18T06:04:45;39.17;;;24.08;;
1975;SDS011;988;48.016;7.800;2022-12-18T06:07:11;35.70;;;25.25;;
1975;SDS011;988;48.016;7.800;2022-12-18T06:09:37;39.13;;;27.10;;
1975;SDS011;988;48.016;7.800;2022-12-18T06:12:03;35.60;;;25.17;;
1975;SDS011;988;48.016;7.800;2022-12-18T06:14:29;31.40;;;24.33;;
1975;SDS011;988;48.016;7.800;2022-12-18T06:16:54;39.27;;;26.10;;
1975;SDS011;988;48.016;7.800;2022-12-18T06:19:20;36.27;;;25.63;;
1975;SDS011;988;48.016;7.800;2022-12-18T06:21:46;37.80;;;24.03;;
1975;SDS011;988;48.016;7.800;2022-12-18T06:24:12;34.22;;;25.98;;
1975;SDS011;988;48.016;7.800;2022-12-18T06:26:38;32.37;;;25.37;;
1975;SDS011;988;48.016;7.800;2022-12-18T06:29:04;26.90;;;22.92;;
1975;SDS011;988;48.016;7.800;2022-12-18T06:31:30;36.00;;;26.30;;
1975;SDS011;988;48.016;7.800;2022-12-18T06:33:56;32.53;;;26.27;;
1975;SDS011;988;48.016;7.800;2022-12-18T06:36:21;29.80;;;25.80;;
1975;SDS011;988;48.016;7.800;2022-12-18T06:38:47;28.27;;;25.30;;
1975;SDS011;988;48.016;7.800;2022-12-18T06:41:14;27.10;;;24.30;;
1975;SDS011;988;48.016;7.800;2022-12-18T06:43:44;27.13;;;24.30;;
1975;SDS011;988;48.016;7.800;2022-12-18T06:46:10;32.70;;;26.00;;
1975;SDS011;988;48.016;7.800;2022-12-18T06:48:36;29.90;;;24.25;;
1975;SDS011;988;48.016;7.800;2022-12-18T06:51:02;32.13;;;24.47;;
1975;SDS011;988;48.016;7.800;2022-12-18T06:53:28;29.02;;;24.08;;
1975;SDS011;988;48.016;7.800;2022-12-18T06:56:05;30.03;;;25.63;;
1975;SDS011;988;48.016;7.800;2022-12-18T06:58:32;29.90;;;25.88;;
1975;SDS011;988;48.016;7.800;2022-12-18T07:01:01;32.50;;;24.87;;
1975;SDS011;988;48.016;7.800;2022-12-18T07:03:33;29.27;;;24.85;;
1975;SDS011;988;48.016;7.800;2022-12-18T07:05:59;29.27;;;24.92;;
1975;SDS011;988;48.016;7.800;2022-12-18T07:08:24;26.03;;;23.27;;
1975;SDS011;988;48.016;7.800;2022-12-18T07:10:50;33.00;;;25.03;;
1975;SDS011;988;48.016;7.800;2022-12-18T07:13:16;29.53;;;23.90;;
1975;SDS011;988;48.016;7.800;2022-12-18T07:15:42;27.20;;;24.48;;
1975;SDS011;988;48.016;7.800;2022-12-18T07:18:08;35.17;;;25.95;;
1975;SDS011;988;48.016;7.800;2022-12-18T07:20:34;33.72;;;26.17;;
1975;SDS011;988;48.016;7.800;2022-12-18T07:23:01;31.17;;;25.47;;
1975;SDS011;988;48.016;7.800;2022-12-18T07:25:47;39.95;;;25.55;;
1975;SDS011;988;48.016;7.800;2022-12-18T07:28:16;34.53;;;26.80;;
1975;SDS011;988;48.016;7.800;2022-12-18T07:30:50;34.77;;;25.53;;
1975;SDS011;988;48.016;7.800;2022-12-18T07:33:19;30.90;;;27.42;;
1975;SDS011;988;48.016;7.800;2022-12-18T07:35:44;31.63;;;24.40;;
1975;SDS011;988;48.016;7.800;2022-12-18T07:38:17;34.83;;;26.17;;
1975;SDS011;988;48.016;7.800;2022-12-18T07:40:46;36.92;;;26.70;;
1975;SDS011;988;48.016;7.800;2022-12-18T07:43:12;33.92;;;25.70;;
1975;SDS011;988;48.016;7.800;2022-12-18T07:45:37;31.80;;;24.53;;
1975;SDS011;988;48.016;7.800;2022-12-18T07:48:06;34.75;;;25.77;;
1975;SDS011;988;48.016;7.800;2022-12-18T07:50:37;28.85;;;23.77;;
1975;SDS011;988;48.016;7.800;2022-12-18T07:53:10;31.10;;;24.92;;
1975;SDS011;988;48.016;7.800;2022-12-18T07:55:36;31.30;;;25.07;;
1975;SDS011;988;48.016;7.800;2022-12-18T07:58:02;34.93;;;25.23;;
1975;SDS011;988;48.016;7.800;2022-12-18T08:03:04;32.58;;;24.88;;
1975;SDS011;988;48.016;7.800;2022-12-18T08:05:30;34.13;;;24.57;;
1975;SDS011;988;48.016;7.800;2022-12-18T08:07:56;31.53;;;23.87;;
1975;SDS011;988;48.016;7.800;2022-12-18T08:10:23;37.80;;;25.52;;
1975;SDS011;988;48.016;7.800;2022-12-18T08:12:49;30.50;;;23.20;;
1975;SDS011;988;48.016;7.800;2022-12-18T08:15:15;29.65;;;23.73;;
1975;SDS011;988;48.016;7.800;2022-12-18T08:17:41;40.20;;;25.20;;
1975;SDS011;988;48.016;7.800;2022-12-18T08:20:07;29.23;;;25.00;;
1975;SDS011;988;48.016;7.800;2022-12-18T08:22:34;35.65;;;27.73;;
1975;SDS011;988;48.016;7.800;2022-12-18T08:25:03;34.80;;;25.08;;
1975;SDS011;988;48.016;7.800;2022-12-18T08:27:29;38.80;;;27.67;;
1975;SDS011;988;48.016;7.800;2022-12-18T08:29:55;32.67;;;26.00;;
1975;SDS011;988;48.016;7.800;2022-12-18T08:32:21;28.58;;;24.63;;
1975;SDS011;988;48.016;7.800;2022-12-18T08:34:47;35.70;;;27.53;;
1975;SDS011;988;48.016;7.800;2022-12-18T08:37:13;31.37;;;25.87;;
1975;SDS011;988;48.016;7.800;2022-12-18T08:39:38;31.37;;;27.53;;
1975;SDS011;988;48.016;7.800;2022-12-18T08:42:04;39.80;;;27.17;;
1975;SDS011;988;48.016;7.800;2022-12-18T08:44:53;36.05;;;26.65;;
1975;SDS011;988;48.016;7.800;2022-12-18T08:47:19;36.65;;;24.88;;
1975;SDS011;988;48.016;7.800;2022-12-18T08:49:44;29.40;;;25.37;;
1975;SDS011;988;48.016;7.800;2022-12-18T08:52:10;32.60;;;27.07;;
1975;SDS011;988;48.016;7.800;2022-12-18T08:54:36;39.60;;;26.17;;
1975;SDS011;988;48.016;7.800;2022-12-18T08:57:01;37.77;;;27.13;;
1975;SDS011;988;48.016;7.800;2022-12-18T08:59:28;28.43;;;24.50;;
1975;SDS011;988;48.016;7.800;2022-12-18T09:01:54;29.00;;;25.23;;
1975;SDS011;988;48.016;7.800;2022-12-18T09:04:20;32.10;;;25.03;;
1975;SDS011;988;48.016;7.800;2022-12-18T09:06:46;39.60;;;27.50;;
1975;SDS011;988;48.016;7.800;2022-12-18T09:09:11;31.47;;;26.33;;
1975;SDS011;988;48.016;7.800;2022-12-18T09:11:37;28.90;;;24.57;;
1975;SDS011;988;48.016;7.800;2022-12-18T09:14:03;34.22;;;26.05;;
1975;SDS011;988;48.016;7.800;2022-12-18T09:16:29;49.40;;;36.50;;
1975;SDS011;988;48.016;7.800;2022-12-18T09:18:55;36.03;;;28.77;;
1975;SDS011;988;48.016;7.800;2022-12-18T09:21:24;28.40;;;25.35;;
1975;SDS011;988;48.016;7.800;2022-12-18T09:23:52;38.22;;;29.45;;
1975;SDS011;988;48.016;7.800;2022-12-18T09:26:19;33.80;;;29.42;;
1975;SDS011;988;48.016;7.800;2022-12-18T09:28:46;31.95;;;28.23;;
1975;SDS011;988;48.016;7.800;2022-12-18T09:31:15;31.80;;;28.30;;
1975;SDS011;988;48.016;7.800;2022-12-18T09:33:43;38.67;;;29.70;;
1975;SDS011;988;48.016;7.800;2022-12-18T09:38:41;31.02;;;27.63;;
1975;SDS011;988;48.016;7.800;2022-12-18T09:44:05;35.92;;;31.73;;
1975;SDS011;988;48.016;7.800;2022-12-18T09:46:37;33.17;;;29.98;;
1975;SDS011;988;48.016;7.800;2022-12-18T09:49:06;36.65;;;32.97;;
1975;SDS011;988;48.016;7.800;2022-12-18T09:51:39;36.33;;;32.70;;
1975;SDS011;988;48.016;7.800;2022-12-18T09:54:32;36.03;;;32.53;;
1975;SDS011;988;48.016;7.800;2022-12-18T09:57:18;35.95;;;32.45;;
1975;SDS011;988;48.016;7.800;2022-12-18T09:59:51;35.55;;;31.85;;
1975;SDS011;988;48.016;7.800;2022-12-18T10:02:22;36.27;;;33.07;;
1975;SDS011;988;48.016;7.800;2022-12-18T10:05:03;38.63;;;33.13;;
1975;SDS011;988;48.016;7.800;2022-12-18T10:19:01;37.33;;;33.83;;
1975;SDS011;988;48.016;7.800;2022-12-18T10:21:58;36.43;;;32.80;;
1975;SDS011;988;48.016;7.800;2022-12-18T10:24:32;37.00;;;33.30;;
1975;SDS011;988;48.016;7.800;2022-12-18T10:27:29;37.37;;;33.93;;
1975;SDS011;988;48.016;7.800;2022-12-18T10:29:55;39.30;;;35.50;;
1975;SDS011;988;48.016;7.800;2022-12-18T10:32:26;38.83;;;35.33;;
1975;SDS011;988;48.016;7.800;2022-12-18T10:34:54;40.33;;;36.30;;
1975;SDS011;988;48.016;7.800;2022-12-18T10:37:23;38.67;;;34.77;;
1975;SDS011;988;48.016;7.800;2022-12-18T10:40:13;49.73;;;37.20;;
1975;SDS011;988;48.016;7.800;2022-12-18T10:42:43;39.53;;;35.80;;
1975;SDS011;988;48.016;7.800;2022-12-18T10:45:28;39.10;;;35.30;;
1975;SDS011;988;48.016;7.800;2022-12-18T10:47:59;38.70;;;34.70;;
1975;SDS011;988;48.016;7.800;2022-12-18T10:50:32;40.87;;;36.57;;
1975;SDS011;988;48.016;7.800;2022-12-18T10:53:00;37.73;;;34.20;;
1975;SDS011;988;48.016;7.800;2022-12-18T10:55:31;38.63;;;34.77;;
1975;SDS011;988;48.016;7.800;2022-12-18T11:03:40;37.80;;;34.00;;
1975;SDS011;988;48.016;7.800;2022-12-18T11:06:16;42.53;;;33.70;;
1975;SDS011;988;48.016;7.800;2022-12-18T11:08:44;36.67;;;33.27;;
1975;SDS011;988;48.016;7.800;2022-12-18T11:11:29;37.97;;;34.23;;
1975;SDS011;988;48.016;7.800;2022-12-18T11:14:03;38.33;;;34.47;;
1975;SDS011;988;48.016;7.800;2022-12-18T11:16:42;39.58;;;34.75;;
1975;SDS011;988;48.016;7.800;2022-12-18T11:21:47;35.28;;;30.75;;
1975;SDS011;988;48.016;7.800;2022-12-18T11:27:03;37.42;;;31.10;;
1975;SDS011;988;48.016;7.800;2022-12-18T11:29:32;34.63;;;29.35;;
1975;SDS011;988;48.016;7.800;2022-12-18T11:32:42;36.40;;;29.88;;
1975;SDS011;988;48.016;7.800;2022-12-18T11:34:57;38.13;;;31.95;;
1975;SDS011;988;48.016;7.800;2022-12-18T11:37:36;32.63;;;29.13;;
1975;SDS011;988;48.016;7.800;2022-12-18T11:40:06;34.17;;;29.25;;
1975;SDS011;988;48.016;7.800;2022-12-18T11:45:30;36.50;;;32.70;;
1975;SDS011;988;48.016;7.800;2022-12-18T11:48:21;43.53;;;34.15;;
1975;SDS011;988;48.016;7.800;2022-12-18T11:50:54;36.45;;;32.65;;
1975;SDS011;988;48.016;7.800;2022-12-18T11:53:21;37.58;;;33.72;;
1975;SDS011;988;48.016;7.800;2022-12-18T12:00:52;39.73;;;35.43;;
1975;SDS011;988;48.016;7.800;2022-12-18T12:03:59;39.63;;;34.28;;
1975;SDS011;988;48.016;7.800;2022-12-18T12:06:46;36.95;;;33.35;;
1975;SDS011;988;48.016;7.800;2022-12-18T12:10:12;38.58;;;34.45;;
1975;SDS011;988;48.016;7.800;2022-12-18T12:23:49;33.03;;;29.65;;
1975;SDS011;988;48.016;7.800;2022-12-18T12:29:19;32.65;;;29.20;;
1975;SDS011;988;48.016;7.800;2022-12-18T12:32:26;35.72;;;30.98;;
1975;SDS011;988;48.016;7.800;2022-12-18T12:35:17;38.53;;;31.23;;
1975;SDS011;988;48.016;7.800;2022-12-18T12:38:08;38.72;;;29.02;;
1975;SDS011;988;48.016;7.800;2022-12-18T12:40:42;37.05;;;31.67;;
1975;SDS011;988;48.016;7.800;2022-12-18T12:43:19;36.10;;;30.23;;
1975;SDS011;988;48.016;7.800;2022-12-18T12:51:03;34.00;;;30.30;;
1975;SDS011;988;48.016;7.800;2022-12-18T12:53:36;36.08;;;31.65;;
1975;SDS011;988;48.016;7.800;2022-12-18T12:56:03;36.92;;;30.45;;
1975;SDS011;988;48.016;7.800;2022-12-18T12:58:36;38.95;;;34.80;;
1975;SDS011;988;48.016;7.800;2022-12-18T13:01:23;36.22;;;32.35;;
1975;SDS011;988;48.016;7.800;2022-12-18T13:06:36;42.05;;;37.60;;
1975;SDS011;988;48.016;7.800;2022-12-18T13:09:21;37.83;;;32.70;;
1975;SDS011;988;48.016;7.800;2022-12-18T13:11:47;36.78;;;31.50;;
1975;SDS011;988;48.016;7.800;2022-12-18T13:14:38;52.60;;;47.45;;
1975;SDS011;988;48.016;7.800;2022-12-18T13:19:50;32.88;;;29.48;;
1975;SDS011;988;48.016;7.800;2022-12-18T13:22:35;35.13;;;31.75;;
1975;SDS011;988;48.016;7.800;2022-12-18T13:25:26;33.70;;;30.10;;
1975;SDS011;988;48.016;7.800;2022-12-18T13:28:05;35.75;;;32.05;;
1975;SDS011;988;48.016;7.800;2022-12-18T13:41:01;33.35;;;29.80;;
1975;SDS011;988;48.016;7.800;2022-12-18T13:43:33;35.42;;;31.20;;
1975;SDS011;988;48.016;7.800;2022-12-18T13:48:55;33.63;;;30.17;;
1975;SDS011;988;48.016;7.800;2022-12-18T13:51:46;34.88;;;31.40;;
1975;SDS011;988;48.016;7.800;2022-12-18T13:56:49;34.28;;;30.65;;
1975;SDS011;988;48.016;7.800;2022-12-18T13:59:22;34.47;;;30.93;;
1975;SDS011;988;48.016;7.800;2022-12-18T14:01:58;33.75;;;30.20;;
1975;SDS011;988;48.016;7.800;2022-12-18T14:06:56;35.47;;;30.42;;
1975;SDS011;988;48.016;7.800;2022-12-18T14:09:41;35.90;;;31.05;;
1975;SDS011;988;48.016;7.800;2022-12-18T14:12:17;33.25;;;29.92;;
1975;SDS011;988;48.016;7.800;2022-12-18T14:15:06;35.03;;;31.63;;
1975;SDS011;988;48.016;7.800;2022-12-18T14:17:45;37.38;;;32.00;;
1975;SDS011;988;48.016;7.800;2022-12-18T14:20:14;41.17;;;33.08;;
1975;SDS011;988;48.016;7.800;2022-12-18T14:22:45;34.53;;;30.88;;
1975;SDS011;988;48.016;7.800;2022-12-18T14:27:49;35.45;;;31.75;;
1975;SDS011;988;48.016;7.800;2022-12-18T14:30:40;39.10;;;31.10;;
1975;SDS011;988;48.016;7.800;2022-12-18T14:35:54;34.80;;;30.17;;
1975;SDS011;988;48.016;7.800;2022-12-18T14:43:35;35.13;;;31.52;;
1975;SDS011;988;48.016;7.800;2022-12-18T14:46:03;33.30;;;29.85;;
1975;SDS011;988;48.016;7.800;2022-12-18T14:48:33;31.73;;;28.63;;
1975;SDS011;988;48.016;7.800;2022-12-18T14:53:42;37.13;;;31.40;;
1975;SDS011;988;48.016;7.800;2022-12-18T14:56:14;35.42;;;31.58;;
1975;SDS011;988;48.016;7.800;2022-12-18T14:58:49;34.08;;;30.38;;
1975;SDS011;988;48.016;7.800;2022-12-18T15:01:21;33.83;;;30.15;;
1975;SDS011;988;48.016;7.800;2022-12-18T15:03:49;34.72;;;30.90;;
1975;SDS011;988;48.016;7.800;2022-12-18T15:06:29;39.78;;;32.92;;
1975;SDS011;988;48.016;7.800;2022-12-18T15:08:55;42.88;;;35.88;;
1975;SDS011;988;48.016;7.800;2022-12-18T15:11:25;41.40;;;33.60;;
1975;SDS011;988;48.016;7.800;2022-12-18T15:13:51;36.90;;;31.63;;
1975;SDS011;988;48.016;7.800;2022-12-18T15:16:16;38.10;;;32.30;;
1975;SDS011;988;48.016;7.800;2022-12-18T15:18:42;37.97;;;30.27;;
1975;SDS011;988;48.016;7.800;2022-12-18T15:21:10;36.15;;;30.95;;
1975;SDS011;988;48.016;7.800;2022-12-18T15:26:10;37.92;;;33.63;;
1975;SDS011;988;48.016;7.800;2022-12-18T15:31:28;40.67;;;34.38;;
1975;SDS011;988;48.016;7.800;2022-12-18T15:36:22;35.07;;;31.50;;
1975;SDS011;988;48.016;7.800;2022-12-18T15:38:52;32.53;;;29.13;;
1975;SDS011;988;48.016;7.800;2022-12-18T15:41:20;37.78;;;32.22;;
1975;SDS011;988;48.016;7.800;2022-12-18T15:43:47;34.47;;;28.55;;
1975;SDS011;988;48.016;7.800;2022-12-18T15:46:24;32.83;;;29.27;;
1975;SDS011;988;48.016;7.800;2022-12-18T15:48:55;34.40;;;30.52;;
1975;SDS011;988;48.016;7.800;2022-12-18T15:52:22;34.88;;;30.73;;
1975;SDS011;988;48.016;7.800;2022-12-18T15:54:18;32.97;;;29.38;;
1975;SDS011;988;48.016;7.800;2022-12-18T15:57:04;42.75;;;32.42;;
1975;SDS011;988;48.016;7.800;2022-12-18T15:59:47;37.15;;;31.02;;
1975;SDS011;988;48.016;7.800;2022-12-18T16:02:14;33.73;;;30.13;;
1975;SDS011;988;48.016;7.800;2022-12-18T16:04:42;38.90;;;31.65;;
1975;SDS011;988;48.016;7.800;2022-12-18T16:07:08;34.07;;;30.37;;
1975;SDS011;988;48.016;7.800;2022-12-18T16:09:34;42.35;;;33.78;;
1975;SDS011;988;48.016;7.800;2022-12-18T16:12:00;36.83;;;32.75;;
1975;SDS011;988;48.016;7.800;2022-12-18T16:14:27;36.90;;;33.10;;
1975;SDS011;988;48.016;7.800;2022-12-18T16:16:55;37.05;;;32.22;;
1975;SDS011;988;48.016;7.800;2022-12-18T16:19:25;41.92;;;33.55;;
1975;SDS011;988;48.016;7.800;2022-12-18T16:21:52;40.58;;;33.30;;
1975;SDS011;988;48.016;7.800;2022-12-18T16:24:29;47.00;;;35.30;;
1975;SDS011;988;48.016;7.800;2022-12-18T16:26:57;47.70;;;38.72;;
1975;SDS011;988;48.016;7.800;2022-12-18T16:29:24;46.65;;;34.42;;
1975;SDS011;988;48.016;7.800;2022-12-18T16:31:53;42.33;;;35.05;;
1975;SDS011;988;48.016;7.800;2022-12-18T16:34:21;40.03;;;32.83;;
1975;SDS011;988;48.016;7.800;2022-12-18T16:37:26;37.78;;;31.95;;
1975;SDS011;988;48.016;7.800;2022-12-18T16:39:44;40.85;;;34.58;;
1975;SDS011;988;48.016;7.800;2022-12-18T16:42:11;40.43;;;34.10;;
1975;SDS011;988;48.016;7.800;2022-12-18T16:44:41;37.70;;;30.83;;
1975;SDS011;988;48.016;7.800;2022-12-18T16:47:15;37.38;;;32.30;;
1975;SDS011;988;48.016;7.800;2022-12-18T16:49:41;41.50;;;32.15;;
1975;SDS011;988;48.016;7.800;2022-12-18T16:52:09;39.08;;;31.90;;
1975;SDS011;988;48.016;7.800;2022-12-18T16:54:35;42.25;;;32.92;;
1975;SDS011;988;48.016;7.800;2022-12-18T16:57:01;42.37;;;33.47;;
1975;SDS011;988;48.016;7.800;2022-12-18T16:59:29;41.22;;;33.22;;
1975;SDS011;988;48.016;7.800;2022-12-18T17:01:55;42.67;;;32.27;;
1975;SDS011;988;48.016;7.800;2022-12-18T17:04:21;41.50;;;34.17;;
1975;SDS011;988;48.016;7.800;2022-12-18T17:06:47;40.00;;;33.50;;
1975;SDS011;988;48.016;7.800;2022-12-18T17:09:16;42.58;;;35.00;;
1975;SDS011;988;48.016;7.800;2022-12-18T17:11:49;70.20;;;45.55;;
1975;SDS011;988;48.016;7.800;2022-12-18T17:14:16;48.37;;;35.53;;
1975;SDS011;988;48.016;7.800;2022-12-18T17:16:43;48.58;;;37.13;;
1975;SDS011;988;48.016;7.800;2022-12-18T17:19:10;54.35;;;36.08;;
1975;SDS011;988;48.016;7.800;2022-12-18T17:21:36;37.30;;;32.53;;
1975;SDS011;988;48.016;7.800;2022-12-18T17:24:02;69.77;;;45.67;;
1975;SDS011;988;48.016;7.800;2022-12-18T17:26:37;49.30;;;36.50;;
1975;SDS011;988;48.016;7.800;2022-12-18T17:29:02;44.13;;;35.00;;
1975;SDS011;988;48.016;7.800;2022-12-18T17:31:28;49.97;;;34.80;;